createdAt,value
2023-03-13T00:03:12.737Z,7.50
2023-03-13T00:08:34.455Z,7.50
2023-03-13T00:13:57.863Z,7.50
2023-03-13T00:19:19.583Z,7.50
2023-03-13T00:24:41.097Z,7.60
2023-03-13T00:30:02.770Z,7.60
2023-03-13T00:35:24.381Z,7.50
2023-03-13T00:40:45.841Z,7.60
2023-03-13T00:46:08.363Z,7.60
2023-03-13T00:51:30.383Z,7.50
2023-03-13T00:56:52.098Z,7.50
2023-03-13T01:02:14.140Z,7.40
2023-03-13T01:07:35.591Z,7.40
2023-03-13T01:12:57.431Z,7.50
2023-03-13T01:18:20.788Z,7.50
2023-03-13T01:23:42.886Z,7.50
2023-03-13T01:29:05.595Z,7.50
2023-03-13T01:34:27.220Z,7.30
2023-03-13T01:39:48.901Z,7.40
2023-03-13T01:45:49.139Z,7.50
2023-03-13T01:51:30.268Z,7.40
2023-03-13T01:57:01.707Z,7.50
2023-03-13T02:02:25.419Z,7.50
2023-03-13T02:07:56.119Z,7.50
2023-03-13T02:13:19.999Z,7.50
2023-03-13T02:18:41.788Z,7.50
2023-03-13T02:24:18.032Z,7.40
2023-03-13T02:29:40.171Z,7.40
2023-03-13T02:35:11.586Z,7.50
2023-03-13T02:40:40.188Z,7.50
2023-03-13T02:46:02.962Z,7.40
2023-03-13T02:51:42.717Z,7.40
2023-03-13T02:57:06.554Z,7.50
2023-03-13T03:02:28.185Z,7.50
2023-03-13T03:07:50.934Z,7.50
2023-03-13T03:13:12.858Z,7.50
2023-03-13T03:18:34.935Z,7.50
2023-03-13T03:23:58.790Z,7.40
2023-03-13T03:29:20.679Z,7.50
2023-03-13T03:34:45.801Z,7.40
2023-03-13T03:40:09.912Z,7.40
2023-03-13T03:45:32.195Z,7.50
2023-03-13T03:50:53.814Z,7.50
2023-03-13T03:56:17.213Z,7.50
2023-03-13T04:01:44.596Z,7.40
2023-03-13T04:07:07.185Z,7.40
2023-03-13T04:12:30.282Z,7.50
2023-03-13T04:17:52.623Z,7.60
2023-03-13T04:23:16.935Z,7.60
2023-03-13T04:28:38.569Z,7.70
2023-03-13T04:34:02.815Z,7.60
2023-03-13T04:39:47.373Z,7.70
2023-03-13T04:45:14.886Z,7.80
2023-03-13T04:50:56.677Z,7.90
2023-03-13T04:56:43.575Z,7.90
2023-03-13T05:02:28.952Z,8.00
2023-03-13T05:08:17.843Z,8.10
2023-03-13T05:13:57.814Z,8.20
2023-03-13T05:19:40.560Z,8.20
2023-03-13T05:25:31.200Z,8.20
2023-03-13T05:31:04.853Z,8.30
2023-03-13T05:36:45.804Z,8.40
2023-03-13T05:42:28.831Z,8.40
2023-03-13T05:48:09.483Z,8.60
2023-03-13T05:53:53.862Z,8.50
2023-03-13T05:59:33.840Z,8.60
2023-03-13T06:05:18.870Z,8.60
2023-03-13T06:10:41.655Z,8.60
2023-03-13T06:16:03.487Z,8.70
2023-03-13T06:21:51.912Z,8.80
2023-03-13T06:27:13.520Z,8.80
2023-03-13T06:32:35.055Z,8.80
2023-03-13T06:37:56.604Z,8.80
2023-03-13T06:43:18.333Z,8.80
2023-03-13T06:48:40.084Z,8.80
2023-03-13T06:54:03.750Z,8.80
2023-03-13T06:59:25.422Z,8.90
2023-03-13T07:04:47.112Z,8.90
2023-03-13T07:10:10.716Z,9.00
2023-03-13T07:15:32.470Z,9.00
2023-03-13T07:20:55.671Z,9.10
2023-03-13T07:26:17.902Z,9.30
2023-03-13T07:31:39.917Z,9.30
2023-03-13T07:37:01.861Z,9.40
2023-03-13T07:42:23.460Z,9.50
2023-03-13T07:47:47.165Z,9.50
2023-03-13T07:53:08.983Z,9.60
2023-03-13T07:58:36.216Z,9.80
2023-03-13T08:03:58.915Z,9.70
2023-03-13T08:09:21.035Z,9.90
2023-03-13T08:14:42.326Z,10.00
2023-03-13T08:20:04.220Z,10.10
2023-03-13T08:25:25.887Z,10.10
2023-03-13T08:30:47.501Z,10.30
2023-03-13T08:36:17.674Z,10.40
2023-03-13T08:41:40.933Z,10.40
2023-03-13T08:47:02.769Z,10.30
2023-03-13T08:52:24.445Z,10.40
2023-03-13T08:57:46.138Z,10.40
2023-03-13T09:03:07.665Z,10.50
2023-03-13T09:08:30.368Z,10.50
2023-03-13T09:13:52.719Z,10.50
2023-03-13T09:19:14.609Z,10.60
2023-03-13T09:24:36.246Z,10.80
2023-03-13T09:29:57.761Z,10.80
2023-03-13T09:35:19.534Z,10.70
2023-03-13T09:40:59.861Z,10.90
2023-03-13T09:46:53.561Z,11.10
2023-03-13T09:52:27.400Z,11.30
2023-03-13T09:58:11.607Z,11.40
2023-03-13T10:03:36.088Z,11.70
2023-03-13T10:09:01.374Z,11.90
2023-03-13T10:14:49.168Z,11.90
2023-03-13T10:20:34.501Z,11.80
2023-03-13T10:25:55.945Z,11.80
2023-03-13T10:31:36.720Z,11.80
2023-03-13T10:37:03.021Z,11.90
2023-03-13T10:42:39.913Z,11.80
2023-03-13T10:48:10.563Z,11.90
2023-03-13T10:53:33.711Z,12.00
2023-03-13T10:58:55.722Z,11.90
2023-03-13T11:04:35.782Z,12.10
2023-03-13T11:10:18.335Z,12.00
2023-03-13T11:16:11.563Z,11.90
2023-03-13T11:21:59.000Z,12.10
2023-03-13T11:27:29.657Z,12.00
2023-03-13T11:33:12.582Z,12.10
2023-03-13T11:38:44.660Z,12.10
2023-03-13T11:44:18.201Z,12.20
2023-03-13T11:49:45.697Z,12.30
2023-03-13T11:55:09.762Z,12.30
2023-03-13T12:00:43.553Z,12.70
2023-03-13T12:06:27.086Z,13.20
2023-03-13T12:12:04.783Z,13.40
2023-03-13T12:17:48.408Z,13.80
2023-03-13T12:23:36.402Z,14.00
2023-03-13T12:28:57.841Z,14.40
2023-03-13T12:34:39.922Z,14.30
2023-03-13T12:40:37.812Z,14.50
2023-03-13T12:45:59.578Z,14.70
2023-03-13T12:51:36.098Z,14.60
2023-03-13T12:57:34.968Z,14.90
2023-03-13T13:03:16.544Z,15.20
2023-03-13T13:08:39.995Z,15.00
2023-03-13T13:14:19.464Z,15.00
2023-03-13T13:19:41.114Z,14.80
2023-03-13T13:25:18.330Z,14.90
2023-03-13T13:30:39.998Z,14.70
2023-03-13T13:36:10.609Z,14.70
2023-03-13T13:41:36.958Z,14.80
2023-03-13T13:46:59.626Z,14.60
2023-03-13T13:52:40.237Z,14.50
2023-03-13T13:58:24.478Z,14.40
2023-03-13T14:03:46.112Z,14.40
2023-03-13T14:09:37.521Z,14.40
2023-03-13T14:15:14.987Z,14.50
2023-03-13T14:20:38.827Z,14.60
2023-03-13T14:26:09.140Z,14.40
2023-03-13T14:31:36.401Z,14.50
2023-03-13T14:37:16.938Z,14.60
2023-03-13T14:42:49.428Z,14.50
2023-03-13T14:48:24.778Z,14.50
2023-03-13T14:54:03.145Z,14.30
2023-03-13T14:59:29.070Z,14.40
2023-03-13T15:05:02.470Z,14.30
2023-03-13T15:10:42.123Z,14.50
2023-03-13T15:16:25.362Z,14.50
2023-03-13T15:21:52.530Z,14.50
2023-03-13T15:27:19.297Z,14.60
2023-03-13T15:32:42.703Z,14.80
2023-03-13T15:38:04.327Z,14.90
2023-03-13T15:43:26.499Z,14.80
2023-03-13T15:48:48.456Z,14.80
2023-03-13T15:54:09.767Z,14.50
2023-03-13T15:59:31.292Z,14.50
2023-03-13T16:04:53.219Z,14.50
2023-03-13T16:10:27.241Z,14.60
2023-03-13T16:15:49.267Z,14.70
2023-03-13T16:21:19.132Z,14.60
2023-03-13T16:26:43.784Z,14.60
2023-03-13T16:32:05.327Z,14.70
2023-03-13T16:37:27.209Z,14.50
2023-03-13T16:42:49.141Z,14.50
2023-03-13T16:48:17.044Z,14.40
2023-03-13T16:53:38.372Z,14.40
2023-03-13T16:59:01.074Z,14.20
2023-03-13T17:04:22.783Z,14.00
2023-03-13T17:09:44.506Z,14.00
2023-03-13T17:15:06.405Z,13.90
2023-03-13T17:20:30.113Z,13.90
2023-03-13T17:25:51.616Z,13.80
2023-03-13T17:31:13.360Z,13.80
2023-03-13T17:36:35.909Z,13.70
2023-03-13T17:41:58.025Z,13.90
2023-03-13T17:47:28.374Z,13.70
2023-03-13T17:52:50.730Z,13.70
2023-03-13T17:58:12.661Z,13.70
2023-03-13T18:03:34.678Z,13.40
2023-03-13T18:09:03.013Z,13.40
2023-03-13T18:14:24.566Z,13.60
2023-03-13T18:19:47.513Z,13.60
2023-03-13T18:25:09.803Z,13.60
2023-03-13T18:30:31.518Z,13.50
2023-03-13T18:35:53.207Z,13.50
2023-03-13T18:41:15.749Z,13.50
2023-03-13T18:46:37.136Z,13.60
2023-03-13T18:51:58.871Z,13.00
2023-03-13T18:57:20.828Z,11.70
2023-03-13T19:02:44.972Z,11.60
2023-03-13T19:08:08.708Z,11.40
2023-03-13T19:13:34.891Z,11.30
2023-03-13T19:18:57.060Z,11.20
2023-03-13T19:24:19.425Z,10.90
2023-03-13T19:29:41.195Z,10.60
2023-03-13T19:35:02.698Z,10.40
2023-03-13T19:40:28.895Z,10.30
2023-03-13T19:45:50.484Z,10.20
2023-03-13T19:51:12.007Z,10.00
2023-03-13T19:56:34.344Z,10.00
2023-03-13T20:01:56.187Z,10.00
2023-03-13T20:07:17.891Z,10.00
2023-03-13T20:12:39.440Z,9.90
2023-03-13T20:18:00.871Z,9.80
2023-03-13T20:23:22.456Z,9.80
2023-03-13T20:28:46.605Z,9.70
2023-03-13T20:34:08.411Z,9.80
2023-03-13T20:39:30.026Z,9.80
2023-03-13T20:44:51.467Z,9.90
2023-03-13T20:50:13.193Z,9.90
2023-03-13T20:55:36.968Z,9.90
2023-03-13T21:01:02.740Z,9.90
2023-03-13T21:06:24.224Z,9.90
2023-03-13T21:11:45.616Z,10.10
2023-03-13T21:17:10.128Z,10.20
2023-03-13T21:22:31.754Z,10.20
2023-03-13T21:27:53.371Z,10.20
2023-03-13T21:33:14.884Z,10.10
2023-03-13T21:38:37.195Z,10.00
2023-03-13T21:43:58.617Z,10.10
2023-03-13T21:49:20.395Z,10.20
2023-03-13T21:54:43.309Z,10.00
2023-03-13T22:00:08.263Z,10.20
2023-03-13T22:05:31.223Z,10.10
2023-03-13T22:10:55.119Z,10.20
2023-03-13T22:16:16.974Z,10.20
2023-03-13T22:21:38.909Z,10.20
2023-03-13T22:27:00.367Z,10.20
2023-03-13T22:32:22.012Z,10.30
2023-03-13T22:37:43.656Z,10.20
2023-03-13T22:43:05.036Z,10.40
2023-03-13T22:48:27.500Z,10.30
2023-03-13T22:53:49.269Z,10.40
2023-03-13T22:59:10.788Z,10.30
2023-03-13T23:04:32.228Z,10.20
2023-03-13T23:09:54.090Z,10.10
2023-03-13T23:15:15.484Z,10.20
2023-03-13T23:20:37.740Z,10.30
2023-03-13T23:26:08.265Z,10.30
2023-03-13T23:31:30.042Z,10.30
2023-03-13T23:36:51.976Z,10.30
2023-03-13T23:42:13.409Z,10.30
2023-03-13T23:47:35.022Z,10.30
2023-03-13T23:52:56.440Z,10.40
2023-03-13T23:58:18.104Z,10.20
